Time;durP1;ratioP1;P1;durP2;ratioP2;P2;SDS_P1;SDS_P2;PMS_P1;PMS_P2;Temp;Humidity;BMP_temperature;BMP_pressure;BME280_temperature;BME280_humidity;BME280_pressure;Samples;Min_cycle;Max_cycle;Signal;HPM_P1;HPM_P2
2021/10/18 00:00:19;;;;;;;6.97;5.00;;;11.30;85.20;;;;;;2073614;28;20042;-92
2021/10/18 00:01:20;;;;;;;6.38;4.88;;;11.30;85.20;;;;;;2082085;28;20132;-92
2021/10/18 00:02:21;;;;;;;8.15;5.03;;;11.30;85.30;;;;;;2073258;28;20061;-92
2021/10/18 00:03:22;;;;;;;7.10;4.93;;;11.30;85.30;;;;;;2057099;28;20077;-93
2021/10/18 00:04:22;;;;;;;7.47;5.05;;;11.30;85.30;;;;;;2057210;28;20031;-92
2021/10/18 00:05:23;;;;;;;7.80;5.05;;;11.30;85.20;;;;;;2065055;28;20049;-92
2021/10/18 00:06:24;;;;;;;6.75;4.93;;;11.30;85.30;;;;;;2081426;28;20064;-91
2021/10/18 00:07:24;;;;;;;7.90;4.97;;;11.30;85.30;;;;;;2073310;28;20042;-92
2021/10/18 00:08:25;;;;;;;7.40;4.95;;;11.30;85.30;;;;;;2073194;28;20065;-92
2021/10/18 00:09:26;;;;;;;7.97;5.22;;;11.30;85.30;;;;;;2073200;28;20034;-91
2021/10/18 00:10:27;;;;;;;8.73;4.88;;;11.30;85.30;;;;;;2065340;28;20062;-93
2021/10/18 00:11:27;;;;;;;6.50;4.68;;;11.30;85.40;;;;;;2082111;28;20069;-93
2021/10/18 00:12:28;;;;;;;9.18;5.13;;;11.30;85.40;;;;;;2083151;28;20048;-91
2021/10/18 00:13:29;;;;;;;6.78;4.82;;;11.30;85.40;;;;;;2067586;28;20051;-92
2021/10/18 00:14:30;;;;;;;8.13;5.43;;;11.30;85.40;;;;;;2066631;28;20026;-93
2021/10/18 00:15:30;;;;;;;9.50;5.35;;;11.30;85.40;;;;;;2082468;28;20048;-93
2021/10/18 00:16:31;;;;;;;7.88;5.00;;;11.30;85.40;;;;;;2074326;28;20133;-92
2021/10/18 00:17:32;;;;;;;6.80;4.70;;;11.20;85.40;;;;;;2073829;28;20192;-91
2021/10/18 00:18:33;;;;;;;7.03;5.13;;;11.20;85.40;;;;;;2081660;28;20412;-94
2021/10/18 00:19:33;;;;;;;6.85;4.90;;;11.30;85.50;;;;;;2082982;28;20093;-92
2021/10/18 00:20:35;;;;;;;8.13;4.95;;;11.20;85.40;;;;;;2075710;28;20034;-92
2021/10/18 00:21:35;;;;;;;7.53;5.20;;;11.20;85.40;;;;;;2073358;28;20085;-92
2021/10/18 00:22:36;;;;;;;8.50;5.00;;;11.20;85.40;;;;;;2073367;28;20042;-91
2021/10/18 00:23:37;;;;;;;6.95;4.65;;;11.30;85.50;;;;;;2065294;28;20113;-92
2021/10/18 00:24:38;;;;;;;8.25;5.15;;;11.30;85.50;;;;;;2073197;28;20588;-91
2021/10/18 00:25:38;;;;;;;8.63;4.97;;;11.30;85.50;;;;;;2073356;28;20176;-92
2021/10/18 00:26:39;;;;;;;9.70;5.47;;;11.20;85.40;;;;;;2065059;28;20039;-93
2021/10/18 00:27:40;;;;;;;9.10;4.78;;;11.30;85.50;;;;;;2074272;28;20049;-92
2021/10/18 00:28:40;;;;;;;6.22;4.53;;;11.30;85.60;;;;;;2076329;28;20510;-92
2021/10/18 00:29:41;;;;;;;8.23;5.00;;;11.30;85.60;;;;;;2076361;28;20033;-93
2021/10/18 00:30:42;;;;;;;7.05;4.65;;;11.30;85.60;;;;;;2081517;28;20021;-83
2021/10/18 00:31:42;;;;;;;7.57;5.03;;;11.30;85.60;;;;;;2083379;28;20042;-81
2021/10/18 00:32:43;;;;;;;7.93;5.28;;;11.30;85.60;;;;;;2072093;28;20054;-91
2021/10/18 00:33:45;;;;;;;6.70;5.18;;;11.30;85.60;;;;;;2078901;28;20113;-92
2021/10/18 00:34:45;;;;;;;7.20;4.72;;;11.30;85.60;;;;;;2074251;28;20132;-93
2021/10/18 00:35:46;;;;;;;8.57;5.03;;;11.30;85.60;;;;;;2074014;28;20030;-93
2021/10/18 00:36:47;;;;;;;8.02;5.18;;;11.20;85.60;;;;;;2082827;28;20041;-92
2021/10/18 00:37:48;;;;;;;7.47;5.30;;;11.30;85.60;;;;;;2074746;28;20568;-92
2021/10/18 00:38:48;;;;;;;7.57;4.63;;;11.30;85.60;;;;;;2074788;28;20033;-92
2021/10/18 00:39:49;;;;;;;7.72;4.95;;;11.30;85.70;;;;;;2082997;28;20116;-92
2021/10/18 00:40:50;;;;;;;6.68;4.53;;;11.30;86.30;;;;;;2074646;28;20030;-91
2021/10/18 00:41:50;;;;;;;7.35;4.65;;;11.20;85.80;;;;;;2066365;28;20040;-92
2021/10/18 00:42:53;;;;;;;7.20;4.85;;;11.20;85.80;;;;;;2074631;28;20037;-92
2021/10/18 00:43:55;;;;;;;8.35;5.22;;;11.20;85.80;;;;;;2074869;28;20065;-92
2021/10/18 00:44:56;;;;;;;7.30;5.18;;;11.20;85.80;;;;;;2076676;28;20173;-92
2021/10/18 00:45:57;;;;;;;8.15;4.70;;;11.20;85.70;;;;;;2075999;28;20062;-92
2021/10/18 00:46:58;;;;;;;7.85;4.72;;;11.20;85.80;;;;;;2068390;28;20041;-92
2021/10/18 00:47:59;;;;;;;7.03;4.88;;;11.20;85.80;;;;;;2084978;28;20052;-92
2021/10/18 00:48:59;;;;;;;7.70;5.07;;;11.20;85.80;;;;;;2089893;28;20089;-92
2021/10/18 00:50:00;;;;;;;7.28;5.10;;;11.20;85.80;;;;;;2083181;28;20118;-92
2021/10/18 00:51:01;;;;;;;6.68;5.18;;;11.20;85.70;;;;;;2083954;28;20164;-93
2021/10/18 00:52:02;;;;;;;7.60;5.10;;;11.20;85.80;;;;;;2082873;28;20060;-92
2021/10/18 00:53:03;;;;;;;7.38;5.22;;;11.20;85.80;;;;;;2074718;28;20109;-92
2021/10/18 00:54:05;;;;;;;7.93;5.30;;;11.20;85.80;;;;;;2066757;28;20042;-92
2021/10/18 00:55:07;;;;;;;7.80;4.82;;;11.20;85.80;;;;;;2074693;28;20046;-92
2021/10/18 00:56:08;;;;;;;8.50;5.70;;;11.20;85.80;;;;;;2067371;28;20034;-92
2021/10/18 00:57:10;;;;;;;8.43;5.30;;;11.20;85.80;;;;;;2066556;28;20210;-92
2021/10/18 00:58:11;;;;;;;8.00;5.20;;;11.20;85.80;;;;;;2075027;28;20030;-92
2021/10/18 00:59:11;;;;;;;8.05;5.15;;;11.10;85.70;;;;;;2082995;28;20045;-92
2021/10/18 01:00:14;;;;;;;7.93;5.13;;;11.20;85.80;;;;;;2082585;28;20040;-92
2021/10/18 01:01:15;;;;;;;7.68;5.20;;;11.10;85.80;;;;;;2074847;28;20030;-92
2021/10/18 01:02:16;;;;;;;8.13;5.15;;;11.10;85.80;;;;;;2074254;28;20509;-92
2021/10/18 01:03:17;;;;;;;6.65;4.75;;;11.10;85.80;;;;;;2083052;28;20037;-93
2021/10/18 01:04:18;;;;;;;9.55;5.43;;;11.10;85.80;;;;;;2082899;28;20411;-92
2021/10/18 01:05:19;;;;;;;9.55;5.18;;;11.10;85.90;;;;;;2066578;28;20038;-92
2021/10/18 01:06:21;;;;;;;8.10;5.18;;;11.10;85.90;;;;;;2066649;28;20034;-92
2021/10/18 01:07:21;;;;;;;7.47;5.30;;;11.10;86.00;;;;;;2066583;28;20104;-92
2021/10/18 01:08:23;;;;;;;8.77;5.63;;;11.10;86.00;;;;;;2074721;28;20030;-93
2021/10/18 01:09:23;;;;;;;7.45;4.80;;;11.00;86.00;;;;;;2082908;28;20061;-92
2021/10/18 01:10:24;;;;;;;7.28;5.05;;;11.00;86.00;;;;;;2066509;28;20031;-92
2021/10/18 01:11:25;;;;;;;7.80;5.57;;;11.00;86.00;;;;;;2066687;28;20044;-92
2021/10/18 01:12:25;;;;;;;7.50;5.13;;;11.00;86.10;;;;;;2083139;28;20614;-92
2021/10/18 01:13:26;;;;;;;7.35;4.90;;;11.00;86.10;;;;;;2082914;28;20515;-92
2021/10/18 01:14:27;;;;;;;9.85;5.30;;;11.00;86.20;;;;;;2089662;28;20041;-92
2021/10/18 01:15:27;;;;;;;6.68;4.78;;;10.90;86.80;;;;;;2091691;28;20090;-92
2021/10/18 01:16:28;;;;;;;7.53;5.20;;;10.90;86.20;;;;;;2091565;28;20078;-92
2021/10/18 01:17:29;;;;;;;7.80;5.50;;;10.90;86.20;;;;;;2091009;28;20491;-92
2021/10/18 01:18:29;;;;;;;7.40;5.20;;;10.90;86.30;;;;;;2090879;28;20044;-92
2021/10/18 01:19:30;;;;;;;7.75;4.97;;;10.90;86.30;;;;;;2091153;28;20505;-93
2021/10/18 01:20:36;;;;;;;8.02;5.38;;;10.90;86.30;;;;;;2091466;28;20065;-91
2021/10/18 01:21:38;;;;;;;6.72;4.60;;;10.90;86.30;;;;;;2091507;28;20032;-93
2021/10/18 01:22:40;;;;;;;7.38;5.18;;;10.90;86.30;;;;;;2082625;28;20033;-93
2021/10/18 01:23:40;;;;;;;8.07;5.25;;;10.90;86.30;;;;;;2074518;28;20049;-92
2021/10/18 01:24:41;;;;;;;7.30;5.22;;;10.90;86.30;;;;;;2082641;28;20026;-93
2021/10/18 01:25:42;;;;;;;6.15;4.47;;;10.80;86.30;;;;;;2090816;28;20470;-92
2021/10/18 01:26:43;;;;;;;7.47;4.75;;;10.90;87.00;;;;;;2082524;28;20157;-92
2021/10/18 01:27:43;;;;;;;7.78;5.25;;;10.80;86.30;;;;;;2083210;28;20042;-92
2021/10/18 01:28:44;;;;;;;9.40;5.38;;;10.80;86.40;;;;;;2075462;28;20070;-92
2021/10/18 01:29:44;;;;;;;7.75;5.50;;;10.80;86.50;;;;;;2083830;28;20052;-93
2021/10/18 01:30:45;;;;;;;8.35;5.00;;;10.80;86.50;;;;;;2083786;28;20034;-92
2021/10/18 01:31:46;;;;;;;6.93;5.20;;;10.80;86.60;;;;;;2073695;28;20038;-92
2021/10/18 01:32:48;;;;;;;9.23;5.65;;;10.80;86.60;;;;;;2067192;28;20055;-93
2021/10/18 01:33:48;;;;;;;7.90;5.60;;;10.80;86.60;;;;;;2074370;28;20045;-92
2021/10/18 01:34:49;;;;;;;8.93;5.10;;;10.80;86.70;;;;;;2074671;28;20049;-92
2021/10/18 01:35:50;;;;;;;7.90;5.43;;;10.80;86.70;;;;;;2074512;28;20045;-92
2021/10/18 01:36:51;;;;;;;9.05;5.90;;;10.80;86.70;;;;;;2066054;28;20030;-92
2021/10/18 01:37:51;;;;;;;8.02;5.68;;;10.80;86.80;;;;;;2066440;28;20062;-92
2021/10/18 01:38:53;;;;;;;8.02;5.05;;;10.80;86.80;;;;;;2082726;28;20036;-93
2021/10/18 01:39:53;;;;;;;8.60;5.28;;;10.80;86.90;;;;;;2082484;28;20120;-93
2021/10/18 01:40:54;;;;;;;8.23;5.13;;;10.80;86.90;;;;;;2082576;28;20092;-93
2021/10/18 01:41:55;;;;;;;7.22;5.40;;;10.70;86.90;;;;;;2075128;28;20115;-93
2021/10/18 01:42:55;;;;;;;8.50;5.80;;;10.70;86.90;;;;;;2082326;28;20053;-92
2021/10/18 01:43:56;;;;;;;7.78;5.43;;;10.70;86.90;;;;;;2074187;28;20249;-92
2021/10/18 01:44:57;;;;;;;9.25;5.80;;;10.80;87.00;;;;;;2074083;28;20144;-92
2021/10/18 01:45:57;;;;;;;8.80;5.75;;;10.80;87.00;;;;;;2082533;28;20034;-92
2021/10/18 01:46:58;;;;;;;7.60;4.93;;;10.70;86.90;;;;;;2082332;28;20081;-93
2021/10/18 01:47:59;;;;;;;7.85;5.47;;;10.70;86.90;;;;;;2082540;28;20038;-92
2021/10/18 01:48:59;;;;;;;7.47;5.05;;;10.80;87.00;;;;;;2081811;28;20369;-92
2021/10/18 01:50:05;;;;;;;8.10;5.32;;;10.70;87.00;;;;;;2091319;28;20033;-92
2021/10/18 01:51:08;;;;;;;8.52;5.70;;;10.80;87.60;;;;;;2090320;28;20041;-94
2021/10/18 01:52:09;;;;;;;7.93;5.47;;;10.70;87.00;;;;;;2082711;28;20036;-93
2021/10/18 01:53:09;;;;;;;6.68;5.20;;;10.70;87.00;;;;;;2090665;28;20045;-92
2021/10/18 01:54:10;;;;;;;8.07;5.82;;;10.70;87.00;;;;;;2082441;28;20487;-92
2021/10/18 01:55:11;;;;;;;7.53;5.18;;;10.70;87.00;;;;;;2082483;28;20253;-94
2021/10/18 01:56:12;;;;;;;7.75;5.55;;;10.70;87.60;;;;;;2074552;28;20029;-92
2021/10/18 01:57:13;;;;;;;8.35;6.07;;;10.70;87.10;;;;;;2082444;28;20069;-92
2021/10/18 01:58:13;;;;;;;9.07;6.00;;;10.70;87.10;;;;;;2091182;28;20033;-93
2021/10/18 01:59:14;;;;;;;9.32;5.85;;;10.70;87.10;;;;;;2082307;28;20065;-94
2021/10/18 02:00:15;;;;;;;9.13;5.65;;;10.70;87.20;;;;;;2074249;28;20042;-93
2021/10/18 02:01:16;;;;;;;8.77;5.55;;;10.70;87.20;;;;;;2074073;28;20133;-92
2021/10/18 02:02:17;;;;;;;9.80;5.85;;;10.70;87.20;;;;;;2082397;28;20041;-93
2021/10/18 02:03:17;;;;;;;9.27;5.85;;;10.70;87.20;;;;;;2090710;28;20468;-93
2021/10/18 02:04:18;;;;;;;8.55;6.22;;;10.70;87.20;;;;;;2074148;28;20038;-93
2021/10/18 02:05:18;;;;;;;10.13;5.85;;;10.70;87.20;;;;;;2081907;28;20073;-92
2021/10/18 02:06:19;;;;;;;8.68;6.10;;;10.70;87.20;;;;;;2090624;28;20453;-92
2021/10/18 02:07:20;;;;;;;8.63;5.70;;;10.70;87.30;;;;;;2082224;28;20033;-92
2021/10/18 02:08:20;;;;;;;10.50;5.70;;;10.70;87.30;;;;;;2074359;28;20034;-92
2021/10/18 02:09:21;;;;;;;9.18;5.60;;;10.70;87.30;;;;;;2066136;28;20034;-94
2021/10/18 02:10:22;;;;;;;8.02;5.85;;;10.70;87.30;;;;;;2066149;28;20038;-94
2021/10/18 02:11:22;;;;;;;8.88;5.63;;;10.70;87.30;;;;;;2082448;28;20065;-94
2021/10/18 02:12:23;;;;;;;8.75;5.85;;;10.70;87.30;;;;;;2064444;28;20516;-93
2021/10/18 02:13:24;;;;;;;8.02;5.45;;;10.70;87.30;;;;;;2057841;28;20529;-92
2021/10/18 02:14:24;;;;;;;8.57;5.82;;;10.70;87.20;;;;;;2065922;28;20030;-92
2021/10/18 02:15:25;;;;;;;8.70;6.22;;;10.70;87.20;;;;;;2074339;28;20439;-93
2021/10/18 02:16:25;;;;;;;6.82;5.25;;;10.80;87.20;;;;;;2066085;28;20081;-92
2021/10/18 02:17:26;;;;;;;7.60;5.63;;;10.80;87.20;;;;;;2066040;28;20074;-92
2021/10/18 02:18:27;;;;;;;8.90;5.70;;;10.80;87.20;;;;;;2066177;28;20034;-92
2021/10/18 02:19:27;;;;;;;8.07;5.75;;;10.80;87.20;;;;;;2066089;28;20136;-92
2021/10/18 02:20:28;;;;;;;8.10;5.85;;;10.80;87.20;;;;;;2058066;28;20042;-93
2021/10/18 02:21:29;;;;;;;7.97;5.80;;;10.80;87.20;;;;;;2066132;28;20026;-92
2021/10/18 02:22:30;;;;;;;8.77;6.30;;;10.80;87.20;;;;;;2065986;28;20092;-92
2021/10/18 02:23:31;;;;;;;7.60;5.95;;;10.80;87.20;;;;;;2065827;28;20038;-94
2021/10/18 02:24:32;;;;;;;10.18;6.20;;;10.80;87.20;;;;;;2066183;28;20172;-92
2021/10/18 02:25:32;;;;;;;10.05;6.20;;;10.80;87.30;;;;;;2074227;28;20041;-94
2021/10/18 02:26:33;;;;;;;9.73;6.30;;;10.80;87.30;;;;;;2066085;28;20026;-92
2021/10/18 02:27:33;;;;;;;8.55;5.85;;;10.80;87.30;;;;;;2066013;28;20397;-93
2021/10/18 02:28:34;;;;;;;7.85;5.40;;;10.80;87.30;;;;;;2065935;28;20049;-92
2021/10/18 02:29:35;;;;;;;7.90;5.68;;;10.80;87.40;;;;;;2065893;28;20047;-94
2021/10/18 02:30:36;;;;;;;8.13;5.75;;;10.70;87.30;;;;;;2065926;28;20042;-92
2021/10/18 02:31:37;;;;;;;7.40;5.68;;;10.80;87.40;;;;;;2065841;28;20050;-92
2021/10/18 02:32:40;;;;;;;8.82;6.03;;;10.70;87.40;;;;;;2065742;28;20042;-91
2021/10/18 02:33:40;;;;;;;7.60;5.70;;;10.80;87.40;;;;;;2058618;28;20039;-92
2021/10/18 02:34:41;;;;;;;8.18;5.97;;;10.70;87.40;;;;;;2074076;28;20045;-93
2021/10/18 02:35:42;;;;;;;9.45;6.20;;;10.70;87.40;;;;;;2073973;28;20040;-93
2021/10/18 02:36:43;;;;;;;8.77;6.20;;;10.70;87.50;;;;;;2074567;28;20050;-92
2021/10/18 02:37:43;;;;;;;9.07;6.45;;;10.70;87.50;;;;;;2069027;28;20045;-93
2021/10/18 02:38:44;;;;;;;8.07;5.70;;;10.70;87.60;;;;;;2069241;28;20050;-93
2021/10/18 02:39:45;;;;;;;8.05;5.70;;;10.70;87.60;;;;;;2069606;28;20035;-93
2021/10/18 02:40:45;;;;;;;8.65;6.03;;;10.70;88.20;;;;;;2073464;28;20138;-93
2021/10/18 02:41:46;;;;;;;9.95;6.30;;;10.70;87.60;;;;;;2089497;28;20050;-94
2021/10/18 02:42:47;;;;;;;9.63;6.80;;;10.70;87.60;;;;;;2082392;28;20071;-91
2021/10/18 02:43:47;;;;;;;8.75;6.15;;;10.70;87.60;;;;;;2081358;28;20057;-92
2021/10/18 02:44:48;;;;;;;10.50;7.05;;;10.60;87.60;;;;;;2089572;28;20038;-93
2021/10/18 02:45:50;;;;;;;9.13;6.18;;;10.60;87.60;;;;;;2095200;28;20553;-94
2021/10/18 02:46:50;;;;;;;10.68;6.45;;;10.60;87.60;;;;;;2086102;28;20048;-93
2021/10/18 02:47:51;;;;;;;9.68;6.18;;;10.60;87.70;;;;;;2095024;28;20585;-93
2021/10/18 02:48:52;;;;;;;9.80;6.88;;;10.60;87.70;;;;;;2092297;28;20021;-88
2021/10/18 02:49:53;;;;;;;9.77;6.30;;;10.60;87.80;;;;;;2090772;28;20109;-93
2021/10/18 02:50:54;;;;;;;9.25;6.30;;;10.60;87.80;;;;;;2089827;28;20060;-92
2021/10/18 02:51:54;;;;;;;9.55;6.90;;;10.60;87.80;;;;;;2090303;28;20118;-93
2021/10/18 02:52:55;;;;;;;9.75;6.50;;;10.50;87.80;;;;;;2081667;28;20520;-93
2021/10/18 02:53:56;;;;;;;8.45;6.13;;;10.50;87.80;;;;;;2073889;28;20073;-94
2021/10/18 02:54:56;;;;;;;9.57;6.63;;;10.50;87.80;;;;;;2073750;28;20026;-93
2021/10/18 02:55:57;;;;;;;8.63;6.20;;;10.50;87.80;;;;;;2073637;28;20050;-93
2021/10/18 02:56:58;;;;;;;9.13;6.28;;;10.50;87.80;;;;;;2073166;28;20030;-93
2021/10/18 02:57:58;;;;;;;8.98;6.38;;;10.50;87.90;;;;;;2081766;28;20415;-93
2021/10/18 02:58:59;;;;;;;10.05;6.40;;;10.50;87.90;;;;;;2081570;28;20033;-94
2021/10/18 03:00:02;;;;;;;9.00;6.25;;;10.50;87.90;;;;;;2073970;28;20181;-93
2021/10/18 03:01:03;;;;;;;8.82;6.50;;;10.50;88.00;;;;;;2074168;28;20033;-93
2021/10/18 03:02:03;;;;;;;8.63;6.18;;;10.50;88.00;;;;;;2065458;28;20141;-93
2021/10/18 03:03:06;;;;;;;8.10;6.03;;;10.50;88.00;;;;;;2073866;28;20048;-93
2021/10/18 03:04:06;;;;;;;8.93;6.32;;;10.50;88.00;;;;;;2074302;28;20030;-93
2021/10/18 03:05:07;;;;;;;10.15;6.70;;;10.50;88.60;;;;;;2065767;28;20042;-93
2021/10/18 03:06:08;;;;;;;10.85;6.53;;;10.40;88.00;;;;;;2073881;28;20034;-95
2021/10/18 03:07:09;;;;;;;10.23;6.78;;;10.50;88.00;;;;;;2081229;28;20045;-93
2021/10/18 03:08:09;;;;;;;8.73;6.00;;;10.50;88.00;;;;;;2065534;28;20035;-93
2021/10/18 03:09:10;;;;;;;9.45;6.35;;;10.40;88.00;;;;;;2066685;28;20039;-93
2021/10/18 03:10:10;;;;;;;8.70;6.57;;;10.40;88.00;;;;;;2065645;28;20057;-93
2021/10/18 03:11:12;;;;;;;10.02;6.88;;;10.40;88.00;;;;;;2065441;28;20556;-93
2021/10/18 03:12:13;;;;;;;9.65;6.35;;;10.40;88.00;;;;;;2073736;28;20511;-93
2021/10/18 03:13:16;;;;;;;8.73;6.32;;;10.50;88.10;;;;;;2065550;28;20089;-93
2021/10/18 03:14:17;;;;;;;8.93;6.35;;;10.40;88.00;;;;;;2066204;28;20230;-93
2021/10/18 03:15:18;;;;;;;8.32;6.10;;;10.40;88.10;;;;;;2074439;28;20030;-93
2021/10/18 03:16:19;;;;;;;9.43;6.65;;;10.40;88.10;;;;;;2066106;28;20054;-93
2021/10/18 03:17:20;;;;;;;8.65;6.38;;;10.40;88.10;;;;;;2057919;28;20077;-93
2021/10/18 03:18:20;;;;;;;8.93;7.07;;;10.40;88.10;;;;;;2066122;28;20035;-93
2021/10/18 03:19:21;;;;;;;8.90;6.20;;;10.40;88.20;;;;;;2082903;28;20042;-93
2021/10/18 03:20:22;;;;;;;9.63;6.47;;;10.40;88.20;;;;;;2074040;28;20038;-93
2021/10/18 03:21:22;;;;;;;9.27;6.03;;;10.40;88.20;;;;;;2074201;28;20127;-93
2021/10/18 03:22:23;;;;;;;8.35;6.13;;;10.40;88.20;;;;;;2082504;28;20098;-93
2021/10/18 03:23:24;;;;;;;9.80;6.70;;;10.40;88.30;;;;;;2074259;28;20093;-93
2021/10/18 03:24:24;;;;;;;10.82;6.55;;;10.40;88.20;;;;;;2074826;28;20062;-92
2021/10/18 03:25:26;;;;;;;8.98;6.95;;;10.40;88.20;;;;;;2081707;28;20041;-92
2021/10/18 03:26:27;;;;;;;8.68;6.38;;;10.40;88.20;;;;;;2082215;28;20044;-93
2021/10/18 03:27:28;;;;;;;9.27;6.30;;;10.40;88.20;;;;;;2082385;28;20041;-94
2021/10/18 03:28:28;;;;;;;9.52;6.50;;;10.40;88.20;;;;;;2081691;28;20476;-93
2021/10/18 03:29:29;;;;;;;9.82;6.43;;;10.40;88.30;;;;;;2073503;28;20508;-93
2021/10/18 03:30:30;;;;;;;9.10;6.25;;;10.40;88.30;;;;;;2073658;28;20037;-93
2021/10/18 03:31:31;;;;;;;10.13;6.75;;;10.40;88.30;;;;;;2081759;28;20033;-95
2021/10/18 03:32:31;;;;;;;9.95;6.75;;;10.40;88.30;;;;;;2082136;28;20036;-92
2021/10/18 03:33:36;;;;;;;10.75;6.72;;;10.40;88.30;;;;;;2081342;28;20040;-92
2021/10/18 03:34:37;;;;;;;9.63;6.68;;;10.40;88.30;;;;;;2081723;28;20037;-94
2021/10/18 03:35:38;;;;;;;9.88;6.78;;;10.40;88.30;;;;;;2065455;28;20065;-92
2021/10/18 03:36:38;;;;;;;9.57;6.40;;;10.40;88.40;;;;;;2065408;28;20468;-92
2021/10/18 03:37:39;;;;;;;11.07;7.10;;;10.40;88.40;;;;;;2065508;28;20430;-94
2021/10/18 03:38:40;;;;;;;10.00;7.00;;;10.30;88.40;;;;;;2073626;28;20509;-92
2021/10/18 03:39:40;;;;;;;10.07;6.80;;;10.30;88.40;;;;;;2065400;28;20485;-93
2021/10/18 03:40:41;;;;;;;8.73;6.60;;;10.30;88.40;;;;;;2065250;28;20034;-93
2021/10/18 03:41:42;;;;;;;8.65;6.20;;;10.30;88.40;;;;;;2074437;28;20106;-93
2021/10/18 03:42:42;;;;;;;11.35;7.50;;;10.30;88.50;;;;;;2070326;28;20476;-93
2021/10/18 03:43:43;;;;;;;9.05;6.35;;;10.30;88.50;;;;;;2078664;28;20038;-92
2021/10/18 03:44:44;;;;;;;9.93;7.05;;;10.30;88.60;;;;;;2087635;28;20038;-93
2021/10/18 03:45:44;;;;;;;9.43;6.40;;;10.30;88.60;;;;;;2080093;28;20030;-93
2021/10/18 03:46:45;;;;;;;9.65;7.07;;;10.20;88.60;;;;;;2079989;28;20199;-93
2021/10/18 03:47:46;;;;;;;9.07;6.53;;;10.20;88.70;;;;;;2073816;28;20037;-93
2021/10/18 03:48:46;;;;;;;9.93;6.75;;;10.20;88.70;;;;;;2073492;28;20096;-93
2021/10/18 03:49:47;;;;;;;8.95;6.45;;;10.20;88.70;;;;;;2081481;28;20042;-93
2021/10/18 03:50:48;;;;;;;8.57;6.50;;;10.20;88.80;;;;;;2081501;28;20037;-92
2021/10/18 03:51:48;;;;;;;9.30;6.53;;;10.20;88.80;;;;;;2073222;28;20041;-93
2021/10/18 03:52:49;;;;;;;9.30;6.75;;;10.20;88.70;;;;;;2073603;28;20132;-93
2021/10/18 03:53:50;;;;;;;8.43;6.88;;;10.20;88.80;;;;;;2065380;28;20039;-93
2021/10/18 03:54:50;;;;;;;9.10;6.60;;;10.20;88.80;;;;;;2065380;28;20424;-93
2021/10/18 03:55:51;;;;;;;11.10;7.00;;;10.20;88.80;;;;;;2057275;28;20034;-94
2021/10/18 03:56:52;;;;;;;9.30;6.70;;;10.20;88.80;;;;;;2057258;28;20046;-92
2021/10/18 03:57:52;;;;;;;9.75;6.97;;;10.20;88.80;;;;;;2061819;28;20062;-93
2021/10/18 03:58:53;;;;;;;11.43;7.38;;;10.10;88.80;;;;;;2062688;28;20121;-92
2021/10/18 03:59:53;;;;;;;8.98;6.15;;;10.10;88.80;;;;;;2070829;28;20045;-92
2021/10/18 04:00:54;;;;;;;9.68;6.63;;;10.10;88.80;;;;;;2079427;28;20038;-94
2021/10/18 04:01:55;;;;;;;10.43;6.93;;;10.10;88.90;;;;;;2074114;28;20026;-91
2021/10/18 04:02:56;;;;;;;9.38;6.82;;;10.10;89.00;;;;;;2065648;28;20117;-93
2021/10/18 04:03:57;;;;;;;9.90;6.65;;;10.10;89.00;;;;;;2073453;28;20142;-92
2021/10/18 04:04:57;;;;;;;10.10;6.82;;;10.00;89.00;;;;;;2081683;28;20069;-93
2021/10/18 04:05:58;;;;;;;9.32;6.93;;;10.00;89.70;;;;;;2073209;28;20069;-93
2021/10/18 04:06:58;;;;;;;8.23;6.57;;;10.00;89.10;;;;;;2065155;28;20071;-93
2021/10/18 04:07:59;;;;;;;9.77;6.60;;;10.00;89.10;;;;;;2065286;28;20068;-92
2021/10/18 04:09:00;;;;;;;9.55;6.70;;;10.00;89.10;;;;;;2065233;28;20138;-93
2021/10/18 04:10:00;;;;;;;9.98;6.93;;;10.00;89.20;;;;;;2065431;28;20073;-92
2021/10/18 04:11:01;;;;;;;9.63;7.07;;;10.00;89.20;;;;;;2064921;28;20069;-93
2021/10/18 04:12:02;;;;;;;9.60;6.82;;;9.90;89.20;;;;;;2073306;28;20129;-93
2021/10/18 04:13:03;;;;;;;12.85;8.77;;;9.90;89.20;;;;;;2056884;28;20057;-93
2021/10/18 04:14:05;;;;;;;9.07;6.85;;;9.90;89.20;;;;;;2048556;28;20032;-93
2021/10/18 04:15:06;;;;;;;10.02;7.00;;;9.90;89.30;;;;;;2065463;28;20038;-93
2021/10/18 04:16:08;;;;;;;10.95;7.50;;;9.90;89.30;;;;;;2065303;28;20540;-93
2021/10/18 04:17:08;;;;;;;11.38;7.53;;;9.90;89.40;;;;;;2065016;28;20038;-94
2021/10/18 04:18:09;;;;;;;10.27;7.05;;;9.90;89.40;;;;;;2073230;28;20468;-94
2021/10/18 04:19:09;;;;;;;9.75;7.40;;;9.90;89.50;;;;;;2073892;28;20042;-93
2021/10/18 04:20:10;;;;;;;10.57;7.03;;;9.80;89.40;;;;;;2066973;28;20133;-93
2021/10/18 04:21:11;;;;;;;8.68;6.80;;;9.80;90.00;;;;;;2072919;28;20038;-93
2021/10/18 04:22:11;;;;;;;9.25;6.60;;;9.80;89.50;;;;;;2072751;28;20076;-94
2021/10/18 04:23:12;;;;;;;9.02;6.45;;;9.80;89.50;;;;;;2057292;28;20038;-94
2021/10/18 04:24:13;;;;;;;9.23;7.10;;;9.80;89.50;;;;;;2057393;28;20031;-93
2021/10/18 04:25:15;;;;;;;9.60;6.75;;;9.80;89.50;;;;;;2058112;28;20039;-94
2021/10/18 04:26:16;;;;;;;9.32;7.00;;;9.80;89.50;;;;;;2073320;28;20037;-94
2021/10/18 04:27:17;;;;;;;10.30;7.28;;;9.80;89.50;;;;;;2073707;28;20078;-93
2021/10/18 04:28:17;;;;;;;10.40;7.00;;;9.70;89.50;;;;;;2065293;28;20400;-94
2021/10/18 04:29:18;;;;;;;9.70;7.22;;;9.70;89.50;;;;;;2065194;28;20050;-93
2021/10/18 04:30:19;;;;;;;9.90;7.28;;;9.70;89.60;;;;;;2065708;28;20026;-93
2021/10/18 04:31:19;;;;;;;9.80;7.32;;;9.70;89.60;;;;;;2065430;28;20098;-93
2021/10/18 04:32:20;;;;;;;11.60;8.25;;;9.70;89.60;;;;;;2064889;28;20513;-93
2021/10/18 04:33:21;;;;;;;10.65;7.72;;;9.60;89.50;;;;;;2057061;28;20509;-93
2021/10/18 04:34:21;;;;;;;10.20;7.72;;;9.60;89.60;;;;;;2056979;28;20035;-93
2021/10/18 04:35:22;;;;;;;10.50;7.40;;;9.60;89.60;;;;;;2074069;28;20042;-94
2021/10/18 04:36:24;;;;;;;10.43;7.43;;;9.60;89.60;;;;;;2089750;28;20550;-93
2021/10/18 04:37:24;;;;;;;11.80;7.93;;;9.60;89.60;;;;;;2085913;28;20482;-93
2021/10/18 04:38:25;;;;;;;9.65;7.80;;;9.60;89.60;;;;;;2079731;28;20061;-93
2021/10/18 04:39:26;;;;;;;12.10;8.27;;;9.60;89.60;;;;;;2080725;28;20076;-92
2021/10/18 04:40:26;;;;;;;10.38;7.20;;;9.60;89.70;;;;;;2072871;28;20036;-93
2021/10/18 04:41:27;;;;;;;9.95;8.10;;;9.60;89.70;;;;;;2072649;28;20050;-94
2021/10/18 04:42:28;;;;;;;10.60;7.90;;;9.50;89.60;;;;;;2072597;28;20105;-94
2021/10/18 04:43:28;;;;;;;10.43;8.32;;;9.50;89.70;;;;;;2056939;28;20070;-93
2021/10/18 04:44:29;;;;;;;11.32;7.90;;;9.50;89.70;;;;;;2072882;28;20034;-93
2021/10/18 04:45:30;;;;;;;9.65;7.70;;;9.40;89.80;;;;;;2081090;28;20041;-93
2021/10/18 04:46:30;;;;;;;11.63;7.20;;;9.50;89.90;;;;;;2057012;28;20043;-94
2021/10/18 04:47:31;;;;;;;12.57;7.93;;;9.40;89.90;;;;;;2057053;28;20458;-93
2021/10/18 04:48:32;;;;;;;12.25;8.05;;;9.40;89.90;;;;;;2065464;28;20078;-93
2021/10/18 04:49:32;;;;;;;11.63;8.10;;;9.40;89.90;;;;;;2073313;28;20037;-92
2021/10/18 04:50:33;;;;;;;9.35;7.40;;;9.40;90.00;;;;;;2059499;28;20070;-93
2021/10/18 04:51:34;;;;;;;9.60;7.80;;;9.40;90.00;;;;;;2071397;28;20053;-93
2021/10/18 04:52:36;;;;;;;10.00;7.55;;;9.40;90.00;;;;;;2074788;28;20089;-93
2021/10/18 04:53:36;;;;;;;11.00;7.75;;;9.30;90.00;;;;;;2083173;28;20038;-92
2021/10/18 04:54:37;;;;;;;10.90;7.43;;;9.40;90.00;;;;;;2080823;28;20546;-94
2021/10/18 04:55:38;;;;;;;11.13;7.90;;;9.40;90.10;;;;;;2068090;28;20041;-94
2021/10/18 04:56:39;;;;;;;11.45;7.95;;;9.40;90.00;;;;;;2075257;28;20030;-93
2021/10/18 04:58:15;;;;;;;11.10;7.70;;;9.40;90.00;;;;;;2059689;28;20416;-93
2021/10/18 04:59:15;;;;;;;11.10;7.60;;;9.40;90.00;;;;;;2031137;29;20068;-94
2021/10/18 05:00:16;;;;;;;10.43;7.40;;;9.30;90.00;;;;;;2027111;29;20111;-93
2021/10/18 05:01:17;;;;;;;10.55;7.65;;;9.40;90.00;;;;;;2038003;28;20059;-94
2021/10/18 05:02:17;;;;;;;10.50;7.22;;;9.40;90.00;;;;;;2066475;28;20153;-93
2021/10/18 05:03:18;;;;;;;9.73;7.35;;;9.40;90.00;;;;;;2078032;28;20045;-93
2021/10/18 05:04:18;;;;;;;10.25;7.68;;;9.30;90.00;;;;;;2078981;28;20038;-93
2021/10/18 05:05:20;;;;;;;10.27;7.53;;;9.40;90.00;;;;;;2071797;28;20110;-95
2021/10/18 05:06:21;;;;;;;9.60;7.22;;;9.30;90.00;;;;;;2083313;28;20026;-88
2021/10/18 05:07:22;;;;;;;9.20;7.43;;;9.30;90.00;;;;;;2083305;28;20134;-86
2021/10/18 05:08:22;;;;;;;11.70;7.75;;;9.40;90.00;;;;;;2060493;28;20078;-93
2021/10/18 05:09:23;;;;;;;10.40;8.15;;;9.40;90.00;;;;;;2058968;28;20115;-95
2021/10/18 05:10:23;;;;;;;9.82;7.68;;;9.40;90.00;;;;;;2067421;28;20466;-93
2021/10/18 05:11:24;;;;;;;12.63;8.05;;;9.40;90.00;;;;;;2060372;28;20555;-92
2021/10/18 05:12:25;;;;;;;10.50;7.88;;;9.40;90.00;;;;;;2058550;28;20046;-94
2021/10/18 05:13:26;;;;;;;9.57;7.43;;;9.40;90.30;;;;;;2075723;28;20137;-93
2021/10/18 05:14:26;;;;;;;10.07;7.50;;;9.40;90.10;;;;;;2092090;28;20056;-95
2021/10/18 05:15:27;;;;;;;9.93;7.55;;;9.40;90.10;;;;;;2073556;28;20447;-93
2021/10/18 05:16:28;;;;;;;10.63;7.72;;;9.40;90.10;;;;;;2073792;28;20057;-93
2021/10/18 05:17:28;;;;;;;9.35;7.47;;;9.40;90.10;;;;;;2057451;28;20043;-92